createdAt,value
2022-09-06T00:02:00.290Z,0.70
2022-09-06T00:05:52.275Z,0.80
2022-09-06T00:09:37.291Z,0.93
2022-09-06T00:13:29.336Z,0.70
2022-09-06T00:17:14.287Z,0.57
2022-09-06T00:21:06.299Z,0.87
2022-09-06T00:24:45.418Z,0.77
2022-09-06T00:28:37.300Z,0.70
2022-09-06T00:32:30.366Z,0.50
2022-09-06T00:36:22.315Z,0.77
2022-09-06T00:40:07.365Z,0.93
2022-09-06T00:44:06.278Z,0.70
2022-09-06T00:47:58.327Z,0.90
2022-09-06T00:51:45.378Z,0.80
2022-09-06T00:55:37.302Z,0.98
2022-09-06T00:59:22.309Z,0.70
2022-09-06T01:03:16.313Z,0.47
2022-09-06T01:07:12.486Z,0.63
2022-09-06T01:11:16.346Z,0.57
2022-09-06T01:15:36.346Z,1.27
2022-09-06T01:20:08.312Z,0.70
2022-09-06T01:24:06.375Z,0.60
2022-09-06T01:28:28.525Z,0.80
2022-09-06T01:32:57.329Z,0.68
2022-09-06T01:37:06.184Z,0.75
2022-09-06T01:40:48.324Z,1.30
2022-09-06T01:44:36.334Z,0.70
2022-09-06T01:48:43.312Z,0.70
2022-09-06T01:52:51.353Z,0.80
2022-09-06T01:57:08.328Z,0.70
2022-09-06T02:01:27.366Z,0.57
2022-09-06T02:05:22.387Z,0.80
2022-09-06T02:09:22.323Z,1.05
2022-09-06T02:13:06.453Z,0.60
2022-09-06T02:17:01.402Z,0.90
2022-09-06T02:20:50.320Z,0.80
2022-09-06T02:24:45.335Z,1.20
2022-09-06T02:28:30.489Z,0.88
2022-09-06T02:32:21.331Z,0.85
2022-09-06T02:36:19.365Z,0.68
2022-09-06T02:39:57.721Z,0.87
2022-09-06T02:43:49.337Z,0.82
2022-09-06T02:47:34.438Z,1.00
2022-09-06T02:51:26.346Z,0.95
2022-09-06T02:55:05.170Z,0.70
2022-09-06T02:58:57.383Z,1.30
2022-09-06T03:02:42.466Z,1.00
2022-09-06T03:06:34.377Z,0.85
2022-09-06T03:10:19.418Z,0.85
2022-09-06T03:14:04.489Z,0.95
2022-09-06T03:17:49.366Z,1.03
2022-09-06T03:21:41.398Z,0.80
2022-09-06T03:25:26.361Z,0.82
2022-09-06T03:29:11.512Z,1.13
2022-09-06T03:32:58.158Z,1.08
2022-09-06T03:36:52.362Z,1.10
2022-09-06T03:40:37.388Z,1.23
2022-09-06T03:44:22.448Z,1.27
2022-09-06T03:48:07.412Z,1.15
2022-09-06T03:52:00.379Z,1.10
2022-09-06T03:55:45.399Z,1.37
2022-09-06T03:59:30.518Z,1.20
2022-09-06T04:03:22.494Z,1.50
2022-09-06T04:07:07.416Z,1.88
2022-09-06T04:11:04.385Z,1.67
2022-09-06T04:14:49.387Z,1.40
2022-09-06T04:18:48.373Z,1.30
2022-09-06T04:22:40.391Z,1.35
2022-09-06T04:26:25.407Z,1.38
2022-09-06T04:30:17.468Z,1.40
2022-09-06T04:33:55.721Z,1.57
2022-09-06T04:37:47.437Z,1.55
2022-09-06T04:41:32.419Z,1.70
2022-09-06T04:45:31.464Z,1.58
2022-09-06T04:49:23.402Z,1.77
2022-09-06T04:53:02.564Z,1.30
2022-09-06T04:56:54.389Z,1.13
2022-09-06T05:00:40.452Z,1.30
2022-09-06T05:04:39.524Z,1.23
2022-09-06T05:08:32.413Z,1.23
2022-09-06T05:12:18.409Z,1.77
2022-09-06T05:16:12.479Z,1.40
2022-09-06T05:19:50.572Z,1.60
2022-09-06T05:23:42.401Z,1.50
2022-09-06T05:27:27.470Z,0.93
2022-09-06T05:31:31.502Z,1.30
2022-09-06T05:35:16.495Z,1.48
2022-09-06T05:39:02.458Z,1.33
2022-09-06T05:42:54.468Z,1.20
2022-09-06T05:46:39.467Z,1.08
2022-09-06T05:50:24.482Z,1.38
2022-09-06T05:54:09.445Z,1.40
2022-09-06T05:58:01.445Z,1.33
2022-09-06T06:01:55.514Z,1.77
2022-09-06T06:05:47.445Z,1.48
2022-09-06T06:09:26.061Z,1.17
2022-09-06T06:13:17.443Z,1.10
2022-09-06T06:17:02.573Z,1.50
2022-09-06T06:20:54.525Z,1.23
2022-09-06T06:24:53.454Z,1.23
2022-09-06T06:28:53.476Z,1.70
2022-09-06T06:32:45.445Z,1.00
2022-09-06T06:36:30.446Z,1.70
2022-09-06T06:40:22.449Z,1.30
2022-09-06T06:44:02.577Z,1.30
2022-09-06T06:47:57.436Z,1.45
2022-09-06T06:51:45.456Z,1.38
2022-09-06T06:55:44.441Z,1.53
2022-09-06T06:59:43.447Z,1.60
2022-09-06T07:03:35.459Z,1.58
2022-09-06T07:07:39.477Z,0.98
2022-09-06T07:11:32.526Z,1.90
2022-09-06T07:15:18.472Z,1.47
2022-09-06T07:27:46.839Z,1.63
2022-09-06T07:35:39.545Z,1.40
2022-09-06T07:39:24.546Z,1.20
2022-09-06T07:43:16.505Z,1.30
2022-09-06T07:51:20.656Z,1.35
2022-09-06T07:55:05.536Z,1.13
2022-09-06T07:58:57.493Z,1.17
2022-09-06T08:02:35.848Z,1.00
2022-09-06T08:06:27.533Z,1.45
2022-09-06T08:10:13.916Z,1.13
2022-09-06T08:14:07.508Z,1.43
2022-09-06T08:17:55.516Z,1.13
2022-09-06T08:21:40.579Z,1.13
2022-09-06T08:25:25.492Z,1.30
2022-09-06T08:29:19.516Z,1.02
2022-09-06T08:33:04.489Z,0.93
2022-09-06T08:36:56.658Z,1.00
2022-09-06T08:40:34.807Z,0.82
2022-09-06T08:48:39.538Z,1.13
2022-09-06T08:52:34.509Z,0.87
2022-09-06T08:56:23.129Z,0.80
2022-09-06T09:00:18.558Z,1.05
2022-09-06T09:04:19.532Z,0.85
2022-09-06T09:08:44.528Z,0.93
2022-09-06T09:12:48.559Z,1.00
2022-09-06T09:16:40.596Z,0.80
2022-09-06T09:20:32.536Z,0.63
2022-09-06T09:24:19.523Z,0.85
2022-09-06T09:28:04.593Z,0.90
2022-09-06T09:31:54.666Z,0.57
2022-09-06T09:35:50.556Z,1.00
2022-09-06T09:39:42.649Z,0.68
2022-09-06T09:43:27.624Z,0.95
2022-09-06T09:47:30.599Z,0.70
2022-09-06T09:51:33.767Z,1.03
2022-09-06T09:55:18.628Z,1.03
2022-09-06T09:59:05.639Z,0.60
2022-09-06T10:02:50.570Z,0.68
2022-09-06T10:10:53.561Z,0.80
2022-09-06T10:14:46.655Z,0.80
2022-09-06T10:18:40.611Z,1.00
2022-09-06T10:22:37.576Z,0.80
2022-09-06T10:26:35.580Z,0.63
2022-09-06T10:30:22.160Z,0.67
2022-09-06T10:34:09.587Z,1.03
2022-09-06T10:38:42.588Z,0.50
2022-09-06T10:42:52.606Z,0.70
2022-09-06T10:46:40.712Z,0.80
2022-09-06T10:50:25.603Z,0.60
2022-09-06T10:54:23.627Z,0.80
2022-09-06T10:58:19.779Z,1.40
2022-09-06T11:02:43.964Z,0.90
2022-09-06T11:06:48.607Z,0.85
2022-09-06T11:10:44.621Z,0.80
2022-09-06T11:14:32.594Z,0.93
2022-09-06T11:18:36.613Z,0.93
2022-09-06T11:23:05.657Z,0.93
2022-09-06T11:27:00.625Z,1.10
2022-09-06T11:30:54.642Z,0.80
2022-09-06T11:34:44.163Z,1.17
2022-09-06T11:38:35.620Z,1.45
2022-09-06T11:42:58.917Z,1.15
2022-09-06T11:46:50.663Z,1.17
2022-09-06T11:50:29.717Z,0.80
2022-09-06T11:54:21.681Z,1.50
2022-09-06T11:58:11.630Z,1.08
2022-09-06T12:02:19.728Z,1.30
2022-09-06T12:06:31.626Z,1.00
2022-09-06T12:10:38.647Z,1.13
2022-09-06T12:14:53.633Z,0.90
2022-09-06T12:18:54.685Z,0.90
2022-09-06T12:22:42.100Z,0.80
2022-09-06T12:26:55.971Z,0.73
2022-09-06T12:30:45.825Z,1.17
2022-09-06T12:34:40.731Z,0.70
2022-09-06T12:38:21.699Z,0.73
2022-09-06T12:42:19.759Z,0.88
2022-09-06T12:46:05.672Z,0.70
2022-09-06T12:50:21.664Z,0.90
2022-09-06T12:54:33.668Z,0.97
2022-09-06T12:58:34.714Z,1.65
2022-09-06T13:02:29.801Z,1.65
2022-09-06T13:06:27.685Z,0.60
2022-09-06T13:10:13.685Z,0.73
2022-09-06T13:14:14.489Z,0.63
2022-09-06T13:18:38.684Z,0.55
2022-09-06T13:22:51.688Z,0.95
2022-09-06T13:26:46.738Z,0.70
2022-09-06T13:30:49.515Z,1.10
2022-09-06T13:34:30.624Z,0.50
2022-09-06T13:38:44.962Z,0.70
2022-09-06T13:42:48.713Z,0.50
2022-09-06T13:46:33.953Z,0.50
2022-09-06T13:50:18.682Z,0.77
2022-09-06T13:54:21.857Z,0.73
2022-09-06T13:58:00.962Z,0.55
2022-09-06T14:01:54.715Z,0.60
2022-09-06T14:05:34.520Z,0.80
2022-09-06T14:09:26.754Z,1.10
2022-09-06T14:13:18.718Z,0.60
2022-09-06T14:17:03.700Z,0.82
2022-09-06T14:20:54.379Z,0.73
2022-09-06T14:24:45.697Z,0.60
2022-09-06T14:28:31.711Z,0.90
2022-09-06T14:32:25.721Z,0.67
2022-09-06T14:36:12.643Z,0.68
2022-09-06T14:40:12.913Z,0.60
2022-09-06T14:44:05.707Z,0.70
2022-09-06T14:47:50.753Z,0.73
2022-09-06T14:51:44.825Z,0.70
2022-09-06T14:55:29.730Z,0.60
2022-09-06T14:59:28.747Z,0.73
2022-09-06T15:03:20.748Z,0.80
2022-09-06T15:06:58.797Z,0.90
2022-09-06T15:10:59.770Z,0.50
2022-09-06T15:14:44.761Z,1.00
2022-09-06T15:18:36.784Z,0.63
2022-09-06T15:22:21.773Z,0.50
2022-09-06T15:26:21.801Z,0.60
2022-09-06T15:30:13.748Z,0.73
2022-09-06T15:33:59.747Z,0.57
2022-09-06T15:37:58.755Z,0.77
2022-09-06T15:41:50.765Z,0.75
2022-09-06T15:45:42.802Z,0.67
2022-09-06T15:49:37.752Z,0.50
2022-09-06T15:53:29.917Z,0.60
2022-09-06T15:57:08.715Z,0.70
2022-09-06T16:01:00.867Z,0.63
2022-09-06T16:04:45.771Z,1.07
2022-09-06T16:08:31.086Z,0.60
2022-09-06T16:12:15.772Z,0.60
2022-09-06T16:16:15.908Z,0.70
2022-09-06T16:20:00.759Z,0.50
2022-09-06T16:23:54.791Z,0.30
2022-09-06T16:27:39.783Z,0.50
2022-09-06T16:31:27.035Z,0.50
2022-09-06T16:35:12.773Z,0.60
2022-09-06T16:38:57.862Z,0.63
2022-09-06T16:42:42.877Z,0.40
2022-09-06T16:46:31.224Z,0.50
2022-09-06T16:50:15.807Z,0.80
2022-09-06T16:54:08.797Z,0.73
2022-09-06T16:57:47.191Z,0.63
2022-09-06T17:01:40.890Z,0.53
2022-09-06T17:05:25.814Z,0.50
2022-09-06T17:09:18.811Z,0.90
2022-09-06T17:12:57.840Z,0.80
2022-09-06T17:17:07.849Z,0.68
2022-09-06T17:21:03.839Z,0.60
2022-09-06T17:24:55.825Z,0.50
2022-09-06T17:28:44.882Z,0.50
2022-09-06T17:32:31.772Z,1.00
2022-09-06T17:36:19.818Z,0.90
2022-09-06T17:40:11.922Z,0.63
2022-09-06T17:43:56.826Z,0.67
2022-09-06T17:47:41.899Z,0.57
2022-09-06T17:51:26.840Z,0.50
2022-09-06T17:55:19.827Z,0.43
2022-09-06T17:59:06.835Z,0.50
2022-09-06T18:02:51.977Z,0.50
2022-09-06T18:06:37.850Z,1.17
2022-09-06T18:10:29.827Z,0.55
2022-09-06T18:14:16.838Z,0.82
2022-09-06T18:18:02.443Z,0.60
2022-09-06T18:21:47.867Z,0.50
2022-09-06T18:25:39.828Z,1.63
2022-09-06T18:29:24.837Z,0.95
2022-09-06T18:33:13.447Z,1.13
2022-09-06T18:36:57.902Z,1.00
2022-09-06T18:40:49.941Z,0.70
2022-09-06T18:44:38.832Z,0.80
2022-09-06T18:48:24.992Z,0.70
2022-09-06T18:52:16.868Z,1.02
2022-09-06T18:56:04.863Z,0.90
2022-09-06T18:59:56.870Z,0.93
2022-09-06T19:03:50.856Z,0.80
2022-09-06T19:07:29.863Z,0.80
2022-09-06T19:11:26.855Z,0.70
2022-09-06T19:15:11.907Z,0.60
2022-09-06T19:19:05.084Z,0.87
2022-09-06T19:22:43.244Z,0.80
2022-09-06T19:26:35.870Z,0.55
2022-09-06T19:30:27.991Z,0.70
2022-09-06T19:34:13.909Z,0.70
2022-09-06T19:38:12.879Z,0.67
2022-09-06T19:42:04.871Z,0.90
2022-09-06T19:45:54.172Z,0.90
2022-09-06T19:49:45.927Z,0.70
2022-09-06T19:53:23.950Z,0.70
2022-09-06T19:57:15.899Z,0.50
2022-09-06T20:01:00.973Z,0.80
2022-09-06T20:04:52.910Z,0.90
2022-09-06T20:08:31.946Z,1.05
2022-09-06T20:12:23.940Z,0.70
2022-09-06T20:16:09.957Z,0.67
2022-09-06T20:20:08.917Z,0.75
2022-09-06T20:24:02.918Z,0.50
2022-09-06T20:27:54.934Z,0.63
2022-09-06T20:31:39.959Z,0.80
2022-09-06T20:35:25.131Z,0.70
2022-09-06T20:39:10.911Z,0.85
2022-09-06T20:43:03.283Z,0.80
2022-09-06T20:46:49.976Z,0.70
2022-09-06T20:50:34.992Z,1.00
2022-09-06T20:54:20.920Z,0.60
2022-09-06T20:58:06.017Z,0.68
2022-09-06T21:01:52.951Z,0.80
2022-09-06T21:05:37.974Z,0.77
2022-09-06T21:09:22.996Z,0.50
2022-09-06T21:13:14.978Z,1.00
2022-09-06T21:16:59.925Z,0.68
2022-09-06T21:20:56.047Z,0.63
2022-09-06T21:24:38.008Z,1.02
2022-09-06T21:28:30.063Z,0.80
2022-09-06T21:32:14.943Z,0.63
2022-09-06T21:36:07.963Z,0.68
2022-09-06T21:39:46.295Z,0.70
2022-09-06T21:43:37.969Z,1.10
2022-09-06T21:47:22.956Z,1.07
2022-09-06T21:51:14.971Z,0.90
2022-09-06T21:54:53.252Z,0.73
2022-09-06T21:58:46.020Z,0.75
2022-09-06T22:02:31.021Z,0.93
2022-09-06T22:06:24.940Z,0.83
2022-09-06T22:10:09.969Z,0.80
2022-09-06T22:13:56.038Z,0.90
2022-09-06T22:17:40.959Z,0.85
2022-09-06T22:21:34.967Z,0.80
2022-09-06T22:25:19.940Z,0.97
2022-09-06T22:29:07.079Z,0.83
2022-09-06T22:32:51.972Z,0.73
2022-09-06T22:36:43.980Z,0.70
2022-09-06T22:40:28.992Z,0.70
2022-09-06T22:44:14.264Z,1.07
2022-09-06T22:47:59.013Z,1.03
2022-09-06T22:51:44.044Z,1.00
2022-09-06T22:55:28.975Z,0.75
2022-09-06T22:59:15.161Z,0.98
2022-09-06T23:03:00.992Z,0.83
2022-09-06T23:06:52.998Z,1.00
2022-09-06T23:10:38.972Z,1.05
2022-09-06T23:14:24.137Z,1.20
2022-09-06T23:18:08.977Z,0.90
2022-09-06T23:22:01.025Z,0.90
2022-09-06T23:25:54.034Z,1.10
2022-09-06T23:29:32.144Z,1.25
2022-09-06T23:33:24.003Z,1.10
2022-09-06T23:37:09.031Z,1.10
2022-09-06T23:41:01.000Z,1.00
2022-09-06T23:44:39.051Z,0.80
2022-09-06T23:48:31.145Z,0.82
2022-09-06T23:52:17.047Z,1.00
2022-09-06T23:56:09.078Z,1.20
2022-09-06T23:59:47.177Z,0.97
